KEKO/EKO METAR and TAF weather

Enter ICAO airport designator
Station Type Date Time Source
KEKO METAR 2024/02/26 15:56 UTC NOAA

KEKO 261556Z AUTO 00000KT 10SM CLR 04/M02 A2985 RMK AO2 SLP107 T00441022


Station Type Date Time Source
KEKO Decoded METAR 2024/02/26 15:56 UTC NOAA

ELKO REGIONAL AIRPORT, NV, United States (KEKO) 40-50N 115-47W 1547M
Feb 26, 2024 - 10:56 AM EST / 2024.02.26 1556 UTC
Wind: Calm:0
Visibility: 10 mile(s):0
Sky conditions: clear
Temperature: 39.9 F (4.4 C)
Dew Point: 28.0 F (-2.2 C)
Relative Humidity: 62%
Pressure (altimeter): 29.85 in. Hg (1010 hPa)
ob: KEKO 261556Z AUTO 00000KT 10SM CLR 04/M02 A2985 RMK AO2 SLP107 T00441022
cycle: 16

Station Type Date Time Source
KEKO TAF 2024/02/26 12:42 UTC NOAA